Terminal Aerodrome Forecast
Issued by NWS Northern Indiana

Home | Current Version | Previous Version | Graphics & Text | Print | Product List | Glossary On
Versions: 1 2 3 4 5 6 7 8 9 10 11 12 13
023
FTUS43 KIWX 071724
TAFFWA
TAF
KFWA 071724Z 0718/0818 24010KT P6SM BKN200
     FM080500 27011KT P6SM BKN030
     FM081600 27016G24KT P6SM BKN030=

USA.gov is the U.S. government's official web portal to all federal, state and local government web resources and services.